sensor_id;sensor_type;location;lat;lon;timestamp;pressure;altitude;pressure_sealevel;temperature;humidity
3697;BME280;60662;48.810;8.872;2023-03-18T07:11:49;96227.44;;;12.90;50.45
3697;BME280;60662;48.810;8.872;2023-03-18T07:12:50;96217.63;;;12.94;51.29
3697;BME280;60662;48.810;8.872;2023-03-18T07:13:52;96222.38;;;13.31;49.02
3697;BME280;60662;48.810;8.872;2023-03-18T07:14:54;96232.97;;;13.44;49.25
3697;BME280;60662;48.810;8.872;2023-03-18T07:15:55;96229.56;;;13.56;49.08
3697;BME280;60662;48.810;8.872;2023-03-18T07:16:57;96229.31;;;13.46;49.36
3697;BME280;60662;48.810;8.872;2023-03-18T07:17:59;96228.66;;;13.84;48.68
3697;BME280;60662;48.810;8.872;2023-03-18T07:19:00;96229.09;;;13.91;49.94
3697;BME280;60662;48.810;8.872;2023-03-18T07:20:03;96228.72;;;13.55;50.76
3697;BME280;60662;48.810;8.872;2023-03-18T07:21:05;96236.28;;;14.02;51.01
3697;BME280;60662;48.810;8.872;2023-03-18T07:22:07;96219.88;;;13.98;49.27
3697;BME280;60662;48.810;8.872;2023-03-18T07:23:08;96235.06;;;14.20;51.24
3697;BME280;60662;48.810;8.872;2023-03-18T07:24:11;96238.97;;;14.00;52.08
3697;BME280;60662;48.810;8.872;2023-03-18T07:25:13;96234.06;;;13.54;51.55
3697;BME280;60662;48.810;8.872;2023-03-18T07:26:14;96234.19;;;13.80;49.44
3697;BME280;60662;48.810;8.872;2023-03-18T07:27:16;96228.97;;;14.20;49.04
3697;BME280;60662;48.810;8.872;2023-03-18T07:28:17;96235.19;;;14.85;47.14
3697;BME280;60662;48.810;8.872;2023-03-18T07:29:19;96237.19;;;15.07;46.44
3697;BME280;60662;48.810;8.872;2023-03-18T07:30:20;96239.59;;;14.97;46.70
3697;BME280;60662;48.810;8.872;2023-03-18T07:31:23;96240.19;;;15.40;44.44
3697;BME280;60662;48.810;8.872;2023-03-18T07:32:25;96235.59;;;15.67;43.99
3697;BME280;60662;48.810;8.872;2023-03-18T07:33:27;96237.84;;;15.98;43.84
3697;BME280;60662;48.810;8.872;2023-03-18T07:34:28;96236.00;;;15.87;43.84
3697;BME280;60662;48.810;8.872;2023-03-18T07:35:30;96245.41;;;16.03;43.69
3697;BME280;60662;48.810;8.872;2023-03-18T07:36:33;96240.44;;;16.22;42.96
3697;BME280;60662;48.810;8.872;2023-03-18T07:37:34;96240.75;;;16.30;42.19
3697;BME280;60662;48.810;8.872;2023-03-18T07:38:36;96242.50;;;16.65;42.85
3697;BME280;60662;48.810;8.872;2023-03-18T07:39:37;96231.03;;;16.31;43.22
3697;BME280;60662;48.810;8.872;2023-03-18T07:40:39;96240.94;;;16.27;43.17
3697;BME280;60662;48.810;8.872;2023-03-18T07:41:40;96224.28;;;15.91;41.96
3697;BME280;60662;48.810;8.872;2023-03-18T07:42:41;96240.88;;;16.40;42.72
3697;BME280;60662;48.810;8.872;2023-03-18T07:43:43;96241.91;;;16.51;42.71
3697;BME280;60662;48.810;8.872;2023-03-18T07:44:45;96244.34;;;16.76;42.41
3697;BME280;60662;48.810;8.872;2023-03-18T07:45:46;96252.06;;;16.55;42.96
3697;BME280;60662;48.810;8.872;2023-03-18T07:46:48;96251.88;;;16.70;42.18
3697;BME280;60662;48.810;8.872;2023-03-18T07:47:49;96244.75;;;16.94;41.96
3697;BME280;60662;48.810;8.872;2023-03-18T07:48:51;96246.66;;;16.92;41.50
3697;BME280;60662;48.810;8.872;2023-03-18T07:49:53;96236.88;;;17.06;41.85
3697;BME280;60662;48.810;8.872;2023-03-18T07:50:54;96241.41;;;17.15;41.04
3697;BME280;60662;48.810;8.872;2023-03-18T07:51:56;96244.31;;;17.23;40.78
3697;BME280;60662;48.810;8.872;2023-03-18T07:52:57;96243.06;;;16.93;41.33
3697;BME280;60662;48.810;8.872;2023-03-18T07:53:59;96241.53;;;17.13;41.01
3697;BME280;60662;48.810;8.872;2023-03-18T07:55:01;96248.25;;;17.40;40.92
3697;BME280;60662;48.810;8.872;2023-03-18T07:56:03;96250.06;;;17.51;40.10
3697;BME280;60662;48.810;8.872;2023-03-18T07:57:04;96246.47;;;17.18;40.34
3697;BME280;60662;48.810;8.872;2023-03-18T07:58:07;96259.41;;;17.67;39.83
3697;BME280;60662;48.810;8.872;2023-03-18T07:59:08;96249.47;;;17.25;40.63
3697;BME280;60662;48.810;8.872;2023-03-18T08:00:11;96239.84;;;17.12;40.80
3697;BME280;60662;48.810;8.872;2023-03-18T08:01:12;96251.63;;;17.20;40.72
3697;BME280;60662;48.810;8.872;2023-03-18T08:02:16;96246.69;;;17.15;40.40
3697;BME280;60662;48.810;8.872;2023-03-18T08:03:18;96254.50;;;17.17;39.96
3697;BME280;60662;48.810;8.872;2023-03-18T08:04:19;96250.66;;;17.09;40.09
3697;BME280;60662;48.810;8.872;2023-03-18T08:05:21;96254.00;;;17.23;39.99
3697;BME280;60662;48.810;8.872;2023-03-18T08:06:22;96257.88;;;17.41;39.70
3697;BME280;60662;48.810;8.872;2023-03-18T08:07:25;96248.03;;;17.66;39.80
3697;BME280;60662;48.810;8.872;2023-03-18T08:08:27;96248.97;;;17.65;38.57
3697;BME280;60662;48.810;8.872;2023-03-18T08:09:29;96247.91;;;17.56;39.54
3697;BME280;60662;48.810;8.872;2023-03-18T08:10:30;96254.00;;;17.34;39.77
3697;BME280;60662;48.810;8.872;2023-03-18T08:11:32;96241.41;;;17.60;39.15
3697;BME280;60662;48.810;8.872;2023-03-18T08:12:33;96245.72;;;17.61;39.28
3697;BME280;60662;48.810;8.872;2023-03-18T08:13:52;96247.84;;;17.90;39.13
3697;BME280;60662;48.810;8.872;2023-03-18T08:14:53;96258.91;;;17.84;38.53
3697;BME280;60662;48.810;8.872;2023-03-18T08:15:55;96260.94;;;17.92;38.87
3697;BME280;60662;48.810;8.872;2023-03-18T08:16:56;96252.09;;;17.70;38.95
3697;BME280;60662;48.810;8.872;2023-03-18T08:17:58;96251.00;;;17.61;39.42
3697;BME280;60662;48.810;8.872;2023-03-18T08:18:59;96252.91;;;17.71;39.19
3697;BME280;60662;48.810;8.872;2023-03-18T08:20:01;96243.41;;;17.79;39.11
3697;BME280;60662;48.810;8.872;2023-03-18T08:21:03;96235.34;;;17.92;38.99
3697;BME280;60662;48.810;8.872;2023-03-18T08:22:05;96252.31;;;18.55;37.92
3697;BME280;60662;48.810;8.872;2023-03-18T08:23:06;96256.22;;;18.39;38.10
3697;BME280;60662;48.810;8.872;2023-03-18T08:24:08;96253.16;;;18.76;37.88
3697;BME280;60662;48.810;8.872;2023-03-18T08:25:11;96248.94;;;19.37;36.96
3697;BME280;60662;48.810;8.872;2023-03-18T08:26:13;96260.47;;;19.05;37.13
3697;BME280;60662;48.810;8.872;2023-03-18T08:27:15;96244.88;;;19.33;36.79
3697;BME280;60662;48.810;8.872;2023-03-18T08:28:17;96251.38;;;19.60;36.17
3697;BME280;60662;48.810;8.872;2023-03-18T08:29:18;96255.03;;;19.28;36.87
3697;BME280;60662;48.810;8.872;2023-03-18T08:30:20;96263.22;;;19.56;36.44
3697;BME280;60662;48.810;8.872;2023-03-18T08:31:25;96253.25;;;19.38;36.95
3697;BME280;60662;48.810;8.872;2023-03-18T08:32:26;96262.97;;;19.28;36.49
3697;BME280;60662;48.810;8.872;2023-03-18T08:33:28;96258.34;;;19.82;36.28
3697;BME280;60662;48.810;8.872;2023-03-18T08:34:29;96256.44;;;20.63;35.53
3697;BME280;60662;48.810;8.872;2023-03-18T08:35:31;96261.06;;;20.41;35.58
3697;BME280;60662;48.810;8.872;2023-03-18T08:36:34;96261.91;;;20.61;35.49
3697;BME280;60662;48.810;8.872;2023-03-18T08:37:36;96257.22;;;21.22;34.33
3697;BME280;60662;48.810;8.872;2023-03-18T08:38:38;96261.03;;;21.47;33.06
3697;BME280;60662;48.810;8.872;2023-03-18T08:39:40;96251.56;;;20.58;34.73
3697;BME280;60662;48.810;8.872;2023-03-18T08:40:44;96253.69;;;20.84;34.58
3697;BME280;60662;48.810;8.872;2023-03-18T08:41:47;96248.47;;;21.77;33.64
3697;BME280;60662;48.810;8.872;2023-03-18T08:42:49;96256.06;;;21.34;33.72
3697;BME280;60662;48.810;8.872;2023-03-18T08:43:51;96247.72;;;21.19;34.40
3697;BME280;60662;48.810;8.872;2023-03-18T08:44:52;96252.09;;;22.50;32.14
3697;BME280;60662;48.810;8.872;2023-03-18T08:45:55;96241.13;;;21.33;33.08
3697;BME280;60662;48.810;8.872;2023-03-18T08:46:56;96255.53;;;21.31;33.35
3697;BME280;60662;48.810;8.872;2023-03-18T08:47:58;96245.63;;;21.61;33.18
3697;BME280;60662;48.810;8.872;2023-03-18T08:49:00;96255.22;;;21.34;33.14
3697;BME280;60662;48.810;8.872;2023-03-18T08:50:02;96247.63;;;21.49;33.78
3697;BME280;60662;48.810;8.872;2023-03-18T08:51:05;96252.97;;;21.77;32.83
3697;BME280;60662;48.810;8.872;2023-03-18T08:52:10;96246.84;;;21.29;33.51
3697;BME280;60662;48.810;8.872;2023-03-18T08:53:13;96248.09;;;21.72;33.33
3697;BME280;60662;48.810;8.872;2023-03-18T08:54:14;96251.44;;;20.60;33.67
3697;BME280;60662;48.810;8.872;2023-03-18T08:55:16;96251.53;;;21.07;33.62
3697;BME280;60662;48.810;8.872;2023-03-18T08:56:18;96253.34;;;21.07;33.81
3697;BME280;60662;48.810;8.872;2023-03-18T08:57:19;96252.81;;;20.93;33.77
3697;BME280;60662;48.810;8.872;2023-03-18T08:58:21;96251.63;;;21.91;32.80
3697;BME280;60662;48.810;8.872;2023-03-18T08:59:22;96246.16;;;21.92;33.00
3697;BME280;60662;48.810;8.872;2023-03-18T09:00:24;96256.25;;;21.61;33.31
3697;BME280;60662;48.810;8.872;2023-03-18T09:01:26;96258.75;;;21.15;33.32
3697;BME280;60662;48.810;8.872;2023-03-18T09:02:27;96257.84;;;20.86;34.31
3697;BME280;60662;48.810;8.872;2023-03-18T09:03:30;96249.75;;;20.78;34.77
3697;BME280;60662;48.810;8.872;2023-03-18T09:04:31;96255.63;;;20.82;34.73
3697;BME280;60662;48.810;8.872;2023-03-18T09:05:33;96251.72;;;20.37;34.51
3697;BME280;60662;48.810;8.872;2023-03-18T09:06:35;96257.94;;;19.97;34.72
3697;BME280;60662;48.810;8.872;2023-03-18T09:07:37;96248.63;;;20.02;34.81
3697;BME280;60662;48.810;8.872;2023-03-18T09:08:38;96250.97;;;19.86;34.74
3697;BME280;60662;48.810;8.872;2023-03-18T09:09:40;96244.81;;;19.85;35.54
3697;BME280;60662;48.810;8.872;2023-03-18T09:10:45;96252.16;;;19.82;35.30
3697;BME280;60662;48.810;8.872;2023-03-18T09:11:46;96242.06;;;20.26;34.69
3697;BME280;60662;48.810;8.872;2023-03-18T09:12:48;96244.31;;;20.70;34.19
3697;BME280;60662;48.810;8.872;2023-03-18T09:13:50;96228.53;;;20.78;33.99
3697;BME280;60662;48.810;8.872;2023-03-18T09:14:52;96246.69;;;20.93;33.97
3697;BME280;60662;48.810;8.872;2023-03-18T09:15:53;96243.88;;;20.55;33.76
3697;BME280;60662;48.810;8.872;2023-03-18T09:16:55;96242.78;;;20.58;33.96
3697;BME280;60662;48.810;8.872;2023-03-18T09:17:57;96233.00;;;20.58;33.98
3697;BME280;60662;48.810;8.872;2023-03-18T09:19:12;96240.25;;;20.36;34.16
3697;BME280;60662;48.810;8.872;2023-03-18T09:20:15;96236.91;;;20.44;34.46
3697;BME280;60662;48.810;8.872;2023-03-18T09:21:17;96233.81;;;20.88;34.31
3697;BME280;60662;48.810;8.872;2023-03-18T09:22:19;96232.13;;;20.97;33.81
3697;BME280;60662;48.810;8.872;2023-03-18T09:23:21;96238.56;;;20.16;34.45
3697;BME280;60662;48.810;8.872;2023-03-18T09:24:23;96238.47;;;20.37;34.46
3697;BME280;60662;48.810;8.872;2023-03-18T09:25:25;96242.75;;;20.87;33.95
3697;BME280;60662;48.810;8.872;2023-03-18T09:26:27;96239.69;;;20.43;34.63
3697;BME280;60662;48.810;8.872;2023-03-18T09:27:28;96240.53;;;20.53;34.50
3697;BME280;60662;48.810;8.872;2023-03-18T09:28:30;96248.41;;;21.21;33.19
3697;BME280;60662;48.810;8.872;2023-03-18T09:29:31;96240.59;;;21.20;33.21
3697;BME280;60662;48.810;8.872;2023-03-18T09:30:33;96232.56;;;21.40;33.35
3697;BME280;60662;48.810;8.872;2023-03-18T09:31:36;96235.75;;;21.81;33.00
3697;BME280;60662;48.810;8.872;2023-03-18T09:32:37;96229.13;;;22.67;32.58
3697;BME280;60662;48.810;8.872;2023-03-18T09:33:39;96220.38;;;23.01;32.27
3697;BME280;60662;48.810;8.872;2023-03-18T09:34:42;96221.22;;;23.62;31.49
3697;BME280;60662;48.810;8.872;2023-03-18T09:35:45;96219.41;;;23.63;30.95
3697;BME280;60662;48.810;8.872;2023-03-18T09:36:46;96234.94;;;23.76;31.22
3697;BME280;60662;48.810;8.872;2023-03-18T09:37:51;96226.13;;;24.51;30.62
3697;BME280;60662;48.810;8.872;2023-03-18T09:38:54;96221.47;;;24.86;30.50
3697;BME280;60662;48.810;8.872;2023-03-18T09:39:56;96229.94;;;24.57;30.47
3697;BME280;60662;48.810;8.872;2023-03-18T09:42:17;96201.22;;;25.17;29.63
3697;BME280;60662;48.810;8.872;2023-03-18T09:43:54;96229.66;;;24.68;29.28
3697;BME280;60662;48.810;8.872;2023-03-18T09:45:01;96226.44;;;23.38;30.35
3697;BME280;60662;48.810;8.872;2023-03-18T09:46:16;96224.72;;;24.06;30.51
3697;BME280;60662;48.810;8.872;2023-03-18T09:47:44;96225.88;;;23.95;30.37
3697;BME280;60662;48.810;8.872;2023-03-18T09:50:34;96227.75;;;23.34;32.17
3697;BME280;60662;48.810;8.872;2023-03-18T09:54:17;96214.84;;;23.55;31.37
3697;BME280;60662;48.810;8.872;2023-03-18T09:55:26;96219.88;;;23.24;31.67
3697;BME280;60662;48.810;8.872;2023-03-18T09:56:33;96213.69;;;23.58;31.00
3697;BME280;60662;48.810;8.872;2023-03-18T09:57:38;96217.22;;;24.09;30.83
3697;BME280;60662;48.810;8.872;2023-03-18T09:58:47;96218.53;;;23.54;31.09
3697;BME280;60662;48.810;8.872;2023-03-18T09:59:57;96216.75;;;23.63;30.98
3697;BME280;60662;48.810;8.872;2023-03-18T10:01:03;96208.47;;;22.87;32.55
3697;BME280;60662;48.810;8.872;2023-03-18T10:02:19;96214.91;;;22.58;33.37
3697;BME280;60662;48.810;8.872;2023-03-18T10:03:30;96213.59;;;22.62;33.37
3697;BME280;60662;48.810;8.872;2023-03-18T10:04:43;96213.44;;;22.82;32.90
3697;BME280;60662;48.810;8.872;2023-03-18T10:05:52;96207.53;;;22.96;32.57
3697;BME280;60662;48.810;8.872;2023-03-18T10:07:02;96211.50;;;22.30;33.90
3697;BME280;60662;48.810;8.872;2023-03-18T10:08:41;96209.56;;;21.58;33.59
3697;BME280;60662;48.810;8.872;2023-03-18T10:09:57;96218.50;;;22.31;33.23
3697;BME280;60662;48.810;8.872;2023-03-18T10:11:03;96211.84;;;22.45;32.86
3697;BME280;60662;48.810;8.872;2023-03-18T10:12:15;96209.75;;;22.57;32.23
3697;BME280;60662;48.810;8.872;2023-03-18T10:13:27;96213.94;;;22.59;31.89
3697;BME280;60662;48.810;8.872;2023-03-18T10:14:38;96206.41;;;23.25;31.59
3697;BME280;60662;48.810;8.872;2023-03-18T10:15:46;96213.84;;;22.33;32.54
3697;BME280;60662;48.810;8.872;2023-03-18T10:18:11;96214.13;;;23.37;31.10
3697;BME280;60662;48.810;8.872;2023-03-18T10:19:15;96202.88;;;23.17;32.00
3697;BME280;60662;48.810;8.872;2023-03-18T10:25:58;96217.09;;;21.25;33.70
3697;BME280;60662;48.810;8.872;2023-03-18T10:27:12;96222.66;;;20.84;34.92
3697;BME280;60662;48.810;8.872;2023-03-18T10:28:35;96213.69;;;21.98;33.61
3697;BME280;60662;48.810;8.872;2023-03-18T10:30:34;96215.34;;;21.99;33.11
3697;BME280;60662;48.810;8.872;2023-03-18T10:31:37;96223.44;;;21.80;33.43
3697;BME280;60662;48.810;8.872;2023-03-18T10:34:00;96219.53;;;21.46;33.43
3697;BME280;60662;48.810;8.872;2023-03-18T10:36:20;96217.41;;;22.06;33.56
3697;BME280;60662;48.810;8.872;2023-03-18T10:38:48;96214.50;;;21.43;33.59
3697;BME280;60662;48.810;8.872;2023-03-18T10:39:51;96213.13;;;21.01;33.96
3697;BME280;60662;48.810;8.872;2023-03-18T10:40:54;96207.13;;;21.37;34.15
3697;BME280;60662;48.810;8.872;2023-03-18T10:41:59;96219.31;;;20.63;34.41
3697;BME280;60662;48.810;8.872;2023-03-18T10:43:03;96215.72;;;20.34;34.90
3697;BME280;60662;48.810;8.872;2023-03-18T10:45:32;96214.91;;;21.11;33.60
3697;BME280;60662;48.810;8.872;2023-03-18T10:46:34;96209.59;;;21.48;33.54
3697;BME280;60662;48.810;8.872;2023-03-18T10:47:40;96211.41;;;22.22;32.94
3697;BME280;60662;48.810;8.872;2023-03-18T10:50:17;96212.31;;;22.30;32.47
3697;BME280;60662;48.810;8.872;2023-03-18T10:52:32;96207.88;;;22.75;31.37
3697;BME280;60662;48.810;8.872;2023-03-18T10:53:47;96210.41;;;21.87;33.07
3697;BME280;60662;48.810;8.872;2023-03-18T10:54:53;96201.19;;;22.45;32.38
3697;BME280;60662;48.810;8.872;2023-03-18T10:56:06;96216.56;;;23.04;32.12
3697;BME280;60662;48.810;8.872;2023-03-18T10:57:12;96204.47;;;23.36;31.19
3697;BME280;60662;48.810;8.872;2023-03-18T10:58:17;96204.69;;;22.45;32.29
3697;BME280;60662;48.810;8.872;2023-03-18T10:59:20;96206.94;;;21.76;33.28
3697;BME280;60662;48.810;8.872;2023-03-18T11:00:31;96208.19;;;22.00;33.12
3697;BME280;60662;48.810;8.872;2023-03-18T11:01:35;96203.19;;;21.79;32.73
3697;BME280;60662;48.810;8.872;2023-03-18T11:02:38;96202.44;;;21.21;33.12
3697;BME280;60662;48.810;8.872;2023-03-18T11:03:43;96205.50;;;21.26;33.35
3697;BME280;60662;48.810;8.872;2023-03-18T11:04:51;96204.28;;;20.24;34.76
3697;BME280;60662;48.810;8.872;2023-03-18T11:06:00;96201.59;;;19.54;35.87
3697;BME280;60662;48.810;8.872;2023-03-18T11:07:07;96195.94;;;19.78;36.31
3697;BME280;60662;48.810;8.872;2023-03-18T11:08:39;96197.91;;;21.41;33.87
3697;BME280;60662;48.810;8.872;2023-03-18T11:09:41;96188.34;;;21.76;33.16
3697;BME280;60662;48.810;8.872;2023-03-18T11:10:44;96179.66;;;22.38;32.83
3697;BME280;60662;48.810;8.872;2023-03-18T11:11:56;96183.88;;;22.67;32.79
3697;BME280;60662;48.810;8.872;2023-03-18T11:12:58;96182.69;;;22.07;33.19
3697;BME280;60662;48.810;8.872;2023-03-18T11:14:04;96180.56;;;22.91;31.93
3697;BME280;60662;48.810;8.872;2023-03-18T11:15:10;96181.94;;;21.13;34.19
3697;BME280;60662;48.810;8.872;2023-03-18T11:16:23;96181.50;;;20.51;35.91
3697;BME280;60662;48.810;8.872;2023-03-18T11:17:33;96181.94;;;21.13;34.51
3697;BME280;60662;48.810;8.872;2023-03-18T11:18:37;96177.44;;;21.79;33.89
3697;BME280;60662;48.810;8.872;2023-03-18T11:19:57;96181.81;;;21.71;33.90
3697;BME280;60662;48.810;8.872;2023-03-18T11:21:00;96178.56;;;21.77;33.54
3697;BME280;60662;48.810;8.872;2023-03-18T11:23:31;96187.31;;;21.31;33.53
3697;BME280;60662;48.810;8.872;2023-03-18T11:25:02;96188.13;;;21.69;33.24
3697;BME280;60662;48.810;8.872;2023-03-18T11:26:07;96193.75;;;21.66;33.68
3697;BME280;60662;48.810;8.872;2023-03-18T11:28:20;96181.69;;;22.62;32.52
3697;BME280;60662;48.810;8.872;2023-03-18T11:29:29;96178.50;;;22.59;31.60
3697;BME280;60662;48.810;8.872;2023-03-18T11:30:55;96170.47;;;22.14;32.29
3697;BME280;60662;48.810;8.872;2023-03-18T11:31:58;96177.16;;;22.00;32.63
3697;BME280;60662;48.810;8.872;2023-03-18T11:33:13;96174.75;;;21.61;32.86
3697;BME280;60662;48.810;8.872;2023-03-18T11:34:16;96176.97;;;21.00;33.46
3697;BME280;60662;48.810;8.872;2023-03-18T11:35:22;96171.72;;;21.46;33.08
3697;BME280;60662;48.810;8.872;2023-03-18T11:36:26;96174.19;;;22.04;32.52
3697;BME280;60662;48.810;8.872;2023-03-18T11:37:31;96179.03;;;21.90;32.25
3697;BME280;60662;48.810;8.872;2023-03-18T11:38:35;96180.09;;;22.70;31.92
3697;BME280;60662;48.810;8.872;2023-03-18T11:39:39;96165.75;;;24.34;30.88
3697;BME280;60662;48.810;8.872;2023-03-18T11:40:41;96173.91;;;24.40;30.67
3697;BME280;60662;48.810;8.872;2023-03-18T11:41:44;96178.56;;;24.63;30.28
3697;BME280;60662;48.810;8.872;2023-03-18T11:42:46;96166.91;;;24.31;30.20
3697;BME280;60662;48.810;8.872;2023-03-18T11:44:01;96172.59;;;24.44;29.53
3697;BME280;60662;48.810;8.872;2023-03-18T11:45:16;96173.41;;;24.04;29.96
3697;BME280;60662;48.810;8.872;2023-03-18T11:46:23;96176.91;;;24.21;29.88
3697;BME280;60662;48.810;8.872;2023-03-18T11:47:28;96168.25;;;24.60;29.35
3697;BME280;60662;48.810;8.872;2023-03-18T11:48:35;96181.06;;;24.07;29.82
3697;BME280;60662;48.810;8.872;2023-03-18T11:49:37;96181.41;;;23.61;30.12
3697;BME280;60662;48.810;8.872;2023-03-18T11:50:48;96175.34;;;23.42;30.49
3697;BME280;60662;48.810;8.872;2023-03-18T11:54:53;96171.31;;;23.04;30.32
3697;BME280;60662;48.810;8.872;2023-03-18T11:56:13;96169.34;;;22.79;30.50
3697;BME280;60662;48.810;8.872;2023-03-18T11:57:22;96165.75;;;22.44;30.46
3697;BME280;60662;48.810;8.872;2023-03-18T11:59:37;96164.09;;;22.43;30.55
3697;BME280;60662;48.810;8.872;2023-03-18T12:09:53;96159.66;;;21.80;30.33
3697;BME280;60662;48.810;8.872;2023-03-18T12:11:15;96151.56;;;21.81;30.38
3697;BME280;60662;48.810;8.872;2023-03-18T12:12:43;96144.19;;;21.47;30.72
3697;BME280;60662;48.810;8.872;2023-03-18T12:21:00;96141.22;;;20.95;31.56
3697;BME280;60662;48.810;8.872;2023-03-18T12:23:38;96125.16;;;20.19;31.38
3697;BME280;60662;48.810;8.872;2023-03-18T12:25:22;96140.09;;;20.30;31.54
3697;BME280;60662;48.810;8.872;2023-03-18T12:26:37;96140.63;;;20.53;31.40
3697;BME280;60662;48.810;8.872;2023-03-18T12:28:02;96142.09;;;20.85;31.16
3697;BME280;60662;48.810;8.872;2023-03-18T12:38:15;96133.22;;;20.57;31.44
3697;BME280;60662;48.810;8.872;2023-03-18T12:45:09;96129.66;;;20.19;30.99
3697;BME280;60662;48.810;8.872;2023-03-18T12:46:24;96127.78;;;20.39;31.21
3697;BME280;60662;48.810;8.872;2023-03-18T12:47:49;96128.16;;;20.64;31.32
3697;BME280;60662;48.810;8.872;2023-03-18T12:49:09;96115.13;;;20.33;31.25
3697;BME280;60662;48.810;8.872;2023-03-18T12:50:16;96119.94;;;20.57;30.81
3697;BME280;60662;48.810;8.872;2023-03-18T12:51:26;96123.38;;;20.77;30.59
3697;BME280;60662;48.810;8.872;2023-03-18T12:52:34;96123.38;;;20.87;30.27
3697;BME280;60662;48.810;8.872;2023-03-18T12:53:43;96118.69;;;20.71;30.83
3697;BME280;60662;48.810;8.872;2023-03-18T12:56:05;96127.00;;;20.19;30.87
3697;BME280;60662;48.810;8.872;2023-03-18T12:57:14;96114.03;;;19.86;31.48
3697;BME280;60662;48.810;8.872;2023-03-18T12:58:26;96108.84;;;20.04;31.86
3697;BME280;60662;48.810;8.872;2023-03-18T13:00:45;96113.44;;;20.12;31.23
3697;BME280;60662;48.810;8.872;2023-03-18T13:02:28;96104.88;;;20.58;31.89
3697;BME280;60662;48.810;8.872;2023-03-18T13:03:42;96111.84;;;20.59;31.99
3697;BME280;60662;48.810;8.872;2023-03-18T13:04:52;96109.97;;;20.21;31.47
3697;BME280;60662;48.810;8.872;2023-03-18T13:06:15;96109.38;;;20.37;31.21
3697;BME280;60662;48.810;8.872;2023-03-18T13:07:27;96107.56;;;20.38;31.51
3697;BME280;60662;48.810;8.872;2023-03-18T13:10:17;96111.19;;;20.37;31.20
3697;BME280;60662;48.810;8.872;2023-03-18T13:11:50;96099.47;;;20.30;31.23
3697;BME280;60662;48.810;8.872;2023-03-18T13:12:57;96092.84;;;20.73;31.04
3697;BME280;60662;48.810;8.872;2023-03-18T13:14:06;96089.84;;;21.14;30.50
3697;BME280;60662;48.810;8.872;2023-03-18T13:15:32;96095.78;;;20.60;30.88
3697;BME280;60662;48.810;8.872;2023-03-18T13:16:37;96106.91;;;20.16;31.41
3697;BME280;60662;48.810;8.872;2023-03-18T13:17:42;96100.19;;;20.32;31.11
3697;BME280;60662;48.810;8.872;2023-03-18T13:18:48;96095.06;;;20.58;31.32
3697;BME280;60662;48.810;8.872;2023-03-18T13:19:52;96101.59;;;20.83;30.03
3697;BME280;60662;48.810;8.872;2023-03-18T13:20:55;96097.94;;;21.22;30.47
3697;BME280;60662;48.810;8.872;2023-03-18T13:22:11;96094.16;;;20.39;31.35
3697;BME280;60662;48.810;8.872;2023-03-18T13:26:46;96095.88;;;20.21;30.70
3697;BME280;60662;48.810;8.872;2023-03-18T13:29:58;96092.97;;;20.04;30.89
3697;BME280;60662;48.810;8.872;2023-03-18T13:32:36;96097.78;;;20.38;32.35
3697;BME280;60662;48.810;8.872;2023-03-18T13:39:20;96105.75;;;20.38;32.13
3697;BME280;60662;48.810;8.872;2023-03-18T13:42:17;96095.19;;;19.99;32.57
3697;BME280;60662;48.810;8.872;2023-03-18T13:43:22;96095.44;;;20.35;33.19
3697;BME280;60662;48.810;8.872;2023-03-18T13:44:33;96095.19;;;20.09;35.85
3697;BME280;60662;48.810;8.872;2023-03-18T13:45:41;96081.22;;;20.17;37.18
3697;BME280;60662;48.810;8.872;2023-03-18T13:47:01;96090.47;;;20.80;37.21
3697;BME280;60662;48.810;8.872;2023-03-18T13:48:16;96093.72;;;21.47;37.01
3697;BME280;60662;48.810;8.872;2023-03-18T13:49:27;96094.25;;;22.23;36.49
3697;BME280;60662;48.810;8.872;2023-03-18T13:50:35;96093.56;;;21.77;37.09
3697;BME280;60662;48.810;8.872;2023-03-18T13:51:47;96062.72;;;22.02;36.78
3697;BME280;60662;48.810;8.872;2023-03-18T13:52:53;96101.56;;;22.65;36.54
3697;BME280;60662;48.810;8.872;2023-03-18T13:53:58;96095.28;;;22.75;36.23
3697;BME280;60662;48.810;8.872;2023-03-18T13:55:05;96091.00;;;22.47;36.70
3697;BME280;60662;48.810;8.872;2023-03-18T13:57:46;96100.53;;;22.58;35.88
3697;BME280;60662;48.810;8.872;2023-03-18T13:58:48;96103.28;;;23.09;35.79
3697;BME280;60662;48.810;8.872;2023-03-18T14:00:28;96093.31;;;22.50;36.48
3697;BME280;60662;48.810;8.872;2023-03-18T14:01:32;96096.28;;;22.29;36.76
3697;BME280;60662;48.810;8.872;2023-03-18T14:04:46;96095.00;;;21.89;37.47
3697;BME280;60662;48.810;8.872;2023-03-18T14:05:50;96091.63;;;21.51;37.84
3697;BME280;60662;48.810;8.872;2023-03-18T14:07:16;96095.75;;;21.81;37.90
3697;BME280;60662;48.810;8.872;2023-03-18T14:12:36;96096.41;;;22.64;37.56
3697;BME280;60662;48.810;8.872;2023-03-18T14:13:38;96099.09;;;22.98;36.61
3697;BME280;60662;48.810;8.872;2023-03-18T14:14:53;96105.41;;;23.06;36.25
3697;BME280;60662;48.810;8.872;2023-03-18T14:15:55;96098.84;;;22.92;36.65
3697;BME280;60662;48.810;8.872;2023-03-18T14:16:58;96103.00;;;22.60;37.37
3697;BME280;60662;48.810;8.872;2023-03-18T14:17:59;96095.19;;;22.14;37.05
3697;BME280;60662;48.810;8.872;2023-03-18T14:19:26;96109.44;;;21.87;37.32
3697;BME280;60662;48.810;8.872;2023-03-18T14:20:37;96104.19;;;21.49;37.89
3697;BME280;60662;48.810;8.872;2023-03-18T14:21:45;96107.28;;;21.44;38.26
3697;BME280;60662;48.810;8.872;2023-03-18T14:22:54;96106.81;;;21.03;38.59
3697;BME280;60662;48.810;8.872;2023-03-18T14:24:10;96107.91;;;20.82;39.33
3697;BME280;60662;48.810;8.872;2023-03-18T14:26:19;96094.66;;;20.63;39.15
3697;BME280;60662;48.810;8.872;2023-03-18T14:27:21;96102.13;;;20.39;39.67
3697;BME280;60662;48.810;8.872;2023-03-18T14:28:24;96111.00;;;20.58;40.12
3697;BME280;60662;48.810;8.872;2023-03-18T14:29:46;96110.78;;;20.89;39.20
3697;BME280;60662;48.810;8.872;2023-03-18T14:30:56;96111.47;;;20.91;39.48
3697;BME280;60662;48.810;8.872;2023-03-18T14:31:59;96104.84;;;20.67;39.87
3697;BME280;60662;48.810;8.872;2023-03-18T14:38:03;96102.72;;;20.14;39.85
3697;BME280;60662;48.810;8.872;2023-03-18T14:39:27;96099.38;;;20.21;40.12
3697;BME280;60662;48.810;8.872;2023-03-18T14:40:38;96103.56;;;20.04;40.36
3697;BME280;60662;48.810;8.872;2023-03-18T14:41:43;96101.88;;;20.03;40.26